sensor_id;sensor_type;location;lat;lon;timestamp;P1;durP1;ratioP1;P2;durP2;ratioP2
35835;SDS011;21955;50.580;7.228;2022-12-10T00:02:13;42.72;;;20.45;;
35835;SDS011;21955;50.580;7.228;2022-12-10T00:04:40;50.30;;;19.87;;
35835;SDS011;21955;50.580;7.228;2022-12-10T00:07:08;43.67;;;20.90;;
35835;SDS011;21955;50.580;7.228;2022-12-10T00:09:36;44.63;;;21.00;;
35835;SDS011;21955;50.580;7.228;2022-12-10T00:12:05;45.58;;;21.33;;
35835;SDS011;21955;50.580;7.228;2022-12-10T00:14:32;45.78;;;21.65;;
35835;SDS011;21955;50.580;7.228;2022-12-10T00:16:59;43.55;;;20.52;;
35835;SDS011;21955;50.580;7.228;2022-12-10T00:19:26;44.00;;;21.35;;
35835;SDS011;21955;50.580;7.228;2022-12-10T00:21:53;42.22;;;21.00;;
35835;SDS011;21955;50.580;7.228;2022-12-10T00:24:20;44.90;;;21.08;;
35835;SDS011;21955;50.580;7.228;2022-12-10T00:26:48;43.97;;;21.05;;
35835;SDS011;21955;50.580;7.228;2022-12-10T00:29:16;45.38;;;20.73;;
35835;SDS011;21955;50.580;7.228;2022-12-10T00:31:44;45.80;;;21.48;;
35835;SDS011;21955;50.580;7.228;2022-12-10T00:34:11;44.93;;;21.17;;
35835;SDS011;21955;50.580;7.228;2022-12-10T00:36:39;43.47;;;21.08;;
35835;SDS011;21955;50.580;7.228;2022-12-10T00:39:07;40.92;;;20.23;;
35835;SDS011;21955;50.580;7.228;2022-12-10T00:41:35;44.85;;;20.92;;
35835;SDS011;21955;50.580;7.228;2022-12-10T00:44:03;43.53;;;20.75;;
35835;SDS011;21955;50.580;7.228;2022-12-10T00:46:31;45.17;;;20.75;;
35835;SDS011;21955;50.580;7.228;2022-12-10T00:48:59;44.40;;;20.75;;
35835;SDS011;21955;50.580;7.228;2022-12-10T00:51:26;42.53;;;21.20;;
35835;SDS011;21955;50.580;7.228;2022-12-10T00:53:54;43.38;;;20.48;;
35835;SDS011;21955;50.580;7.228;2022-12-10T00:56:22;44.70;;;21.05;;
35835;SDS011;21955;50.580;7.228;2022-12-10T00:58:50;44.35;;;21.52;;
35835;SDS011;21955;50.580;7.228;2022-12-10T01:01:18;41.42;;;20.77;;
35835;SDS011;21955;50.580;7.228;2022-12-10T01:03:50;48.35;;;21.42;;
35835;SDS011;21955;50.580;7.228;2022-12-10T01:06:18;42.33;;;20.73;;
35835;SDS011;21955;50.580;7.228;2022-12-10T01:08:46;45.22;;;20.98;;
35835;SDS011;21955;50.580;7.228;2022-12-10T01:11:14;42.33;;;21.00;;
35835;SDS011;21955;50.580;7.228;2022-12-10T01:13:42;45.30;;;21.42;;
35835;SDS011;21955;50.580;7.228;2022-12-10T01:16:10;44.65;;;20.92;;
35835;SDS011;21955;50.580;7.228;2022-12-10T01:18:37;46.70;;;21.83;;
35835;SDS011;21955;50.580;7.228;2022-12-10T01:21:06;46.75;;;21.70;;
35835;SDS011;21955;50.580;7.228;2022-12-10T01:23:34;47.00;;;21.77;;
35835;SDS011;21955;50.580;7.228;2022-12-10T01:26:23;48.72;;;22.23;;
35835;SDS011;21955;50.580;7.228;2022-12-10T01:28:50;47.45;;;22.35;;
35835;SDS011;21955;50.580;7.228;2022-12-10T01:31:18;46.30;;;21.48;;
35835;SDS011;21955;50.580;7.228;2022-12-10T01:33:46;45.93;;;22.07;;
35835;SDS011;21955;50.580;7.228;2022-12-10T01:36:16;48.37;;;22.00;;
35835;SDS011;21955;50.580;7.228;2022-12-10T01:38:43;49.70;;;22.20;;
35835;SDS011;21955;50.580;7.228;2022-12-10T01:41:13;45.70;;;21.38;;
35835;SDS011;21955;50.580;7.228;2022-12-10T01:43:51;46.92;;;21.90;;
35835;SDS011;21955;50.580;7.228;2022-12-10T01:46:19;43.72;;;21.45;;
35835;SDS011;21955;50.580;7.228;2022-12-10T01:48:48;45.10;;;21.38;;
35835;SDS011;21955;50.580;7.228;2022-12-10T01:51:17;44.20;;;21.10;;
35835;SDS011;21955;50.580;7.228;2022-12-10T01:53:47;46.20;;;21.75;;
35835;SDS011;21955;50.580;7.228;2022-12-10T01:56:15;45.90;;;21.23;;
35835;SDS011;21955;50.580;7.228;2022-12-10T01:58:43;45.25;;;22.10;;
35835;SDS011;21955;50.580;7.228;2022-12-10T02:01:13;43.10;;;21.03;;
35835;SDS011;21955;50.580;7.228;2022-12-10T02:03:45;44.70;;;21.67;;
35835;SDS011;21955;50.580;7.228;2022-12-10T02:06:20;44.10;;;20.42;;
35835;SDS011;21955;50.580;7.228;2022-12-10T02:08:55;43.03;;;20.87;;
35835;SDS011;21955;50.580;7.228;2022-12-10T02:11:26;45.20;;;21.40;;
35835;SDS011;21955;50.580;7.228;2022-12-10T02:13:55;44.05;;;21.42;;
35835;SDS011;21955;50.580;7.228;2022-12-10T02:16:26;44.10;;;20.90;;
35835;SDS011;21955;50.580;7.228;2022-12-10T02:19:00;42.90;;;21.45;;
35835;SDS011;21955;50.580;7.228;2022-12-10T02:21:40;44.00;;;20.95;;
35835;SDS011;21955;50.580;7.228;2022-12-10T02:24:09;46.92;;;20.75;;
35835;SDS011;21955;50.580;7.228;2022-12-10T02:26:41;43.80;;;21.52;;
35835;SDS011;21955;50.580;7.228;2022-12-10T02:29:15;44.28;;;21.20;;
35835;SDS011;21955;50.580;7.228;2022-12-10T02:31:44;45.20;;;21.58;;
35835;SDS011;21955;50.580;7.228;2022-12-10T02:34:13;46.40;;;21.55;;
35835;SDS011;21955;50.580;7.228;2022-12-10T02:36:42;45.40;;;20.25;;
35835;SDS011;21955;50.580;7.228;2022-12-10T02:39:11;42.47;;;20.13;;
35835;SDS011;21955;50.580;7.228;2022-12-10T02:41:43;41.95;;;20.23;;
35835;SDS011;21955;50.580;7.228;2022-12-10T02:44:14;42.15;;;20.27;;
35835;SDS011;21955;50.580;7.228;2022-12-10T02:46:43;44.17;;;20.50;;
35835;SDS011;21955;50.580;7.228;2022-12-10T02:49:12;44.58;;;21.80;;
35835;SDS011;21955;50.580;7.228;2022-12-10T02:51:40;42.60;;;20.90;;
35835;SDS011;21955;50.580;7.228;2022-12-10T02:56:50;43.35;;;20.77;;
35835;SDS011;21955;50.580;7.228;2022-12-10T02:59:22;45.17;;;21.30;;
35835;SDS011;21955;50.580;7.228;2022-12-10T03:01:53;47.75;;;21.17;;
35835;SDS011;21955;50.580;7.228;2022-12-10T03:04:22;41.80;;;20.55;;
35835;SDS011;21955;50.580;7.228;2022-12-10T03:06:51;44.72;;;20.90;;
35835;SDS011;21955;50.580;7.228;2022-12-10T03:09:19;43.97;;;21.02;;
35835;SDS011;21955;50.580;7.228;2022-12-10T03:11:49;42.97;;;20.17;;
35835;SDS011;21955;50.580;7.228;2022-12-10T03:14:18;43.53;;;20.95;;
35835;SDS011;21955;50.580;7.228;2022-12-10T03:16:49;42.22;;;20.50;;
35835;SDS011;21955;50.580;7.228;2022-12-10T03:19:18;43.15;;;20.40;;
35835;SDS011;21955;50.580;7.228;2022-12-10T03:21:46;44.17;;;20.80;;
35835;SDS011;21955;50.580;7.228;2022-12-10T03:24:13;42.30;;;20.35;;
35835;SDS011;21955;50.580;7.228;2022-12-10T03:26:41;42.88;;;20.10;;
35835;SDS011;21955;50.580;7.228;2022-12-10T03:29:12;42.55;;;20.15;;
35835;SDS011;21955;50.580;7.228;2022-12-10T03:31:41;44.08;;;20.70;;
35835;SDS011;21955;50.580;7.228;2022-12-10T03:34:10;44.58;;;20.08;;
35835;SDS011;21955;50.580;7.228;2022-12-10T03:36:37;42.95;;;20.60;;
35835;SDS011;21955;50.580;7.228;2022-12-10T03:39:05;45.28;;;20.40;;
35835;SDS011;21955;50.580;7.228;2022-12-10T03:41:32;41.38;;;20.20;;
35835;SDS011;21955;50.580;7.228;2022-12-10T03:44:00;42.72;;;19.73;;
35835;SDS011;21955;50.580;7.228;2022-12-10T03:46:27;42.72;;;20.40;;
35835;SDS011;21955;50.580;7.228;2022-12-10T03:48:55;39.93;;;19.43;;
35835;SDS011;21955;50.580;7.228;2022-12-10T03:51:24;42.75;;;19.75;;
35835;SDS011;21955;50.580;7.228;2022-12-10T03:53:51;41.25;;;19.65;;
35835;SDS011;21955;50.580;7.228;2022-12-10T03:56:18;42.95;;;19.52;;
35835;SDS011;21955;50.580;7.228;2022-12-10T03:58:46;41.75;;;19.88;;
35835;SDS011;21955;50.580;7.228;2022-12-10T04:01:13;39.15;;;19.35;;
35835;SDS011;21955;50.580;7.228;2022-12-10T04:03:41;43.75;;;19.58;;
35835;SDS011;21955;50.580;7.228;2022-12-10T04:06:09;43.08;;;19.63;;
35835;SDS011;21955;50.580;7.228;2022-12-10T04:08:38;40.88;;;20.02;;
35835;SDS011;21955;50.580;7.228;2022-12-10T04:11:07;40.72;;;19.35;;
35835;SDS011;21955;50.580;7.228;2022-12-10T04:13:34;38.70;;;19.23;;
35835;SDS011;21955;50.580;7.228;2022-12-10T04:16:19;38.45;;;19.60;;
35835;SDS011;21955;50.580;7.228;2022-12-10T04:18:53;41.47;;;19.45;;
35835;SDS011;21955;50.580;7.228;2022-12-10T04:21:21;40.92;;;19.40;;
35835;SDS011;21955;50.580;7.228;2022-12-10T04:24:08;40.40;;;18.95;;
35835;SDS011;21955;50.580;7.228;2022-12-10T04:26:53;39.15;;;19.35;;
35835;SDS011;21955;50.580;7.228;2022-12-10T04:29:21;38.70;;;18.85;;
35835;SDS011;21955;50.580;7.228;2022-12-10T04:31:48;42.85;;;19.77;;
35835;SDS011;21955;50.580;7.228;2022-12-10T04:34:16;36.87;;;18.43;;
35835;SDS011;21955;50.580;7.228;2022-12-10T04:36:43;39.72;;;19.45;;
35835;SDS011;21955;50.580;7.228;2022-12-10T04:39:11;39.13;;;19.67;;
35835;SDS011;21955;50.580;7.228;2022-12-10T04:41:39;41.53;;;20.13;;
35835;SDS011;21955;50.580;7.228;2022-12-10T04:44:06;39.78;;;19.60;;
35835;SDS011;21955;50.580;7.228;2022-12-10T04:46:33;38.53;;;19.20;;
35835;SDS011;21955;50.580;7.228;2022-12-10T04:49:01;39.88;;;19.00;;
35835;SDS011;21955;50.580;7.228;2022-12-10T04:51:28;41.45;;;19.65;;
35835;SDS011;21955;50.580;7.228;2022-12-10T04:53:55;40.25;;;19.45;;
35835;SDS011;21955;50.580;7.228;2022-12-10T04:56:23;43.05;;;20.70;;
35835;SDS011;21955;50.580;7.228;2022-12-10T04:58:50;42.25;;;20.27;;
35835;SDS011;21955;50.580;7.228;2022-12-10T05:01:18;43.50;;;20.42;;
35835;SDS011;21955;50.580;7.228;2022-12-10T05:03:45;45.15;;;21.15;;
35835;SDS011;21955;50.580;7.228;2022-12-10T05:06:13;41.15;;;20.00;;
35835;SDS011;21955;50.580;7.228;2022-12-10T05:08:41;42.25;;;20.05;;
35835;SDS011;21955;50.580;7.228;2022-12-10T05:11:09;43.25;;;20.60;;
35835;SDS011;21955;50.580;7.228;2022-12-10T05:13:37;42.50;;;20.40;;
35835;SDS011;21955;50.580;7.228;2022-12-10T05:16:05;44.33;;;20.88;;
35835;SDS011;21955;50.580;7.228;2022-12-10T05:18:33;45.78;;;21.17;;
35835;SDS011;21955;50.580;7.228;2022-12-10T05:21:00;43.15;;;21.13;;
35835;SDS011;21955;50.580;7.228;2022-12-10T05:23:28;43.70;;;20.70;;
35835;SDS011;21955;50.580;7.228;2022-12-10T05:25:58;43.33;;;20.77;;
35835;SDS011;21955;50.580;7.228;2022-12-10T05:28:25;44.53;;;21.00;;
35835;SDS011;21955;50.580;7.228;2022-12-10T05:30:54;43.65;;;20.60;;
35835;SDS011;21955;50.580;7.228;2022-12-10T05:33:21;42.40;;;20.20;;
35835;SDS011;21955;50.580;7.228;2022-12-10T05:35:52;45.45;;;20.75;;
35835;SDS011;21955;50.580;7.228;2022-12-10T05:38:19;40.97;;;20.10;;
35835;SDS011;21955;50.580;7.228;2022-12-10T05:40:46;42.22;;;20.45;;
35835;SDS011;21955;50.580;7.228;2022-12-10T05:43:13;43.10;;;20.50;;
35835;SDS011;21955;50.580;7.228;2022-12-10T05:45:40;46.50;;;20.88;;
35835;SDS011;21955;50.580;7.228;2022-12-10T05:48:09;40.63;;;19.57;;
35835;SDS011;21955;50.580;7.228;2022-12-10T05:50:37;41.50;;;20.42;;
35835;SDS011;21955;50.580;7.228;2022-12-10T05:53:04;43.80;;;20.77;;
35835;SDS011;21955;50.580;7.228;2022-12-10T05:55:31;43.95;;;20.98;;
35835;SDS011;21955;50.580;7.228;2022-12-10T05:57:59;43.22;;;21.17;;
35835;SDS011;21955;50.580;7.228;2022-12-10T06:00:26;44.95;;;21.20;;
35835;SDS011;21955;50.580;7.228;2022-12-10T06:02:53;45.75;;;21.55;;
35835;SDS011;21955;50.580;7.228;2022-12-10T06:05:22;46.47;;;21.60;;
35835;SDS011;21955;50.580;7.228;2022-12-10T06:07:49;46.40;;;21.88;;
35835;SDS011;21955;50.580;7.228;2022-12-10T06:10:16;46.47;;;21.30;;
35835;SDS011;21955;50.580;7.228;2022-12-10T06:12:43;48.42;;;21.50;;
35835;SDS011;21955;50.580;7.228;2022-12-10T06:15:10;45.83;;;21.60;;
35835;SDS011;21955;50.580;7.228;2022-12-10T06:17:37;48.42;;;22.05;;
35835;SDS011;21955;50.580;7.228;2022-12-10T06:20:05;43.38;;;21.35;;
35835;SDS011;21955;50.580;7.228;2022-12-10T06:22:34;47.35;;;21.90;;
35835;SDS011;21955;50.580;7.228;2022-12-10T06:25:01;50.15;;;21.98;;
35835;SDS011;21955;50.580;7.228;2022-12-10T06:27:30;46.42;;;22.40;;
35835;SDS011;21955;50.580;7.228;2022-12-10T06:29:57;49.05;;;22.45;;
35835;SDS011;21955;50.580;7.228;2022-12-10T06:32:24;51.83;;;23.20;;
35835;SDS011;21955;50.580;7.228;2022-12-10T06:34:51;51.95;;;22.70;;
35835;SDS011;21955;50.580;7.228;2022-12-10T06:37:19;49.65;;;22.80;;
35835;SDS011;21955;50.580;7.228;2022-12-10T06:39:49;47.40;;;21.90;;
35835;SDS011;21955;50.580;7.228;2022-12-10T06:42:17;49.88;;;22.13;;
35835;SDS011;21955;50.580;7.228;2022-12-10T06:44:44;47.75;;;21.80;;
35835;SDS011;21955;50.580;7.228;2022-12-10T06:47:11;48.33;;;22.10;;
35835;SDS011;21955;50.580;7.228;2022-12-10T06:49:38;50.97;;;23.27;;
35835;SDS011;21955;50.580;7.228;2022-12-10T06:52:06;48.63;;;22.75;;
35835;SDS011;21955;50.580;7.228;2022-12-10T06:54:33;46.87;;;21.87;;
35835;SDS011;21955;50.580;7.228;2022-12-10T06:57:01;46.40;;;22.00;;
35835;SDS011;21955;50.580;7.228;2022-12-10T06:59:28;51.47;;;22.20;;
35835;SDS011;21955;50.580;7.228;2022-12-10T07:01:55;51.17;;;23.10;;
35835;SDS011;21955;50.580;7.228;2022-12-10T07:04:23;52.97;;;22.83;;
35835;SDS011;21955;50.580;7.228;2022-12-10T07:06:50;50.35;;;23.10;;
35835;SDS011;21955;50.580;7.228;2022-12-10T07:09:17;49.83;;;22.27;;
35835;SDS011;21955;50.580;7.228;2022-12-10T07:11:44;50.75;;;22.73;;
35835;SDS011;21955;50.580;7.228;2022-12-10T07:14:14;53.00;;;22.75;;
35835;SDS011;21955;50.580;7.228;2022-12-10T07:16:41;51.38;;;22.42;;
35835;SDS011;21955;50.580;7.228;2022-12-10T07:19:09;52.55;;;22.63;;
35835;SDS011;21955;50.580;7.228;2022-12-10T07:21:37;53.08;;;23.40;;
35835;SDS011;21955;50.580;7.228;2022-12-10T07:24:05;50.63;;;23.00;;
35835;SDS011;21955;50.580;7.228;2022-12-10T07:26:33;48.55;;;21.45;;
35835;SDS011;21955;50.580;7.228;2022-12-10T07:29:01;49.15;;;22.13;;
35835;SDS011;21955;50.580;7.228;2022-12-10T07:31:30;51.83;;;22.55;;
35835;SDS011;21955;50.580;7.228;2022-12-10T07:33:58;46.58;;;21.23;;
35835;SDS011;21955;50.580;7.228;2022-12-10T07:36:25;48.08;;;21.83;;
35835;SDS011;21955;50.580;7.228;2022-12-10T07:38:53;47.42;;;22.35;;
35835;SDS011;21955;50.580;7.228;2022-12-10T07:41:21;51.20;;;22.00;;
35835;SDS011;21955;50.580;7.228;2022-12-10T07:43:48;48.15;;;21.52;;
35835;SDS011;21955;50.580;7.228;2022-12-10T07:46:17;47.10;;;22.17;;
35835;SDS011;21955;50.580;7.228;2022-12-10T07:48:46;48.00;;;21.90;;
35835;SDS011;21955;50.580;7.228;2022-12-10T07:51:14;46.03;;;21.83;;
35835;SDS011;21955;50.580;7.228;2022-12-10T07:53:41;44.65;;;20.25;;
35835;SDS011;21955;50.580;7.228;2022-12-10T07:56:09;43.05;;;20.17;;
35835;SDS011;21955;50.580;7.228;2022-12-10T07:58:36;44.03;;;20.58;;
35835;SDS011;21955;50.580;7.228;2022-12-10T08:01:07;42.53;;;19.55;;
35835;SDS011;21955;50.580;7.228;2022-12-10T08:03:34;41.70;;;19.90;;
35835;SDS011;21955;50.580;7.228;2022-12-10T08:06:04;45.65;;;20.55;;
35835;SDS011;21955;50.580;7.228;2022-12-10T08:08:32;47.28;;;21.17;;
35835;SDS011;21955;50.580;7.228;2022-12-10T08:10:59;43.78;;;21.25;;
35835;SDS011;21955;50.580;7.228;2022-12-10T08:13:26;45.67;;;21.65;;
35835;SDS011;21955;50.580;7.228;2022-12-10T08:15:54;46.08;;;22.40;;
35835;SDS011;21955;50.580;7.228;2022-12-10T08:18:21;45.65;;;21.55;;
35835;SDS011;21955;50.580;7.228;2022-12-10T08:20:48;43.05;;;19.70;;
35835;SDS011;21955;50.580;7.228;2022-12-10T08:23:17;41.75;;;19.75;;
35835;SDS011;21955;50.580;7.228;2022-12-10T08:25:44;36.37;;;17.57;;
35835;SDS011;21955;50.580;7.228;2022-12-10T08:28:11;38.88;;;17.35;;
35835;SDS011;21955;50.580;7.228;2022-12-10T08:30:38;35.95;;;17.00;;
35835;SDS011;21955;50.580;7.228;2022-12-10T08:33:05;32.35;;;16.15;;
35835;SDS011;21955;50.580;7.228;2022-12-10T08:35:33;33.85;;;16.13;;
35835;SDS011;21955;50.580;7.228;2022-12-10T08:38:00;29.00;;;14.43;;
35835;SDS011;21955;50.580;7.228;2022-12-10T08:40:28;27.98;;;13.93;;
35835;SDS011;21955;50.580;7.228;2022-12-10T08:42:55;29.05;;;13.98;;
35835;SDS011;21955;50.580;7.228;2022-12-10T08:45:23;24.77;;;12.80;;
35835;SDS011;21955;50.580;7.228;2022-12-10T08:47:50;25.70;;;12.80;;
35835;SDS011;21955;50.580;7.228;2022-12-10T08:50:18;25.05;;;12.55;;
35835;SDS011;21955;50.580;7.228;2022-12-10T08:52:45;27.35;;;12.60;;
35835;SDS011;21955;50.580;7.228;2022-12-10T08:55:12;28.35;;;13.65;;
35835;SDS011;21955;50.580;7.228;2022-12-10T08:57:41;27.55;;;14.13;;
35835;SDS011;21955;50.580;7.228;2022-12-10T09:00:09;24.08;;;13.10;;
35835;SDS011;21955;50.580;7.228;2022-12-10T09:02:37;26.80;;;12.85;;
35835;SDS011;21955;50.580;7.228;2022-12-10T09:05:04;27.23;;;12.55;;
35835;SDS011;21955;50.580;7.228;2022-12-10T09:07:32;30.20;;;14.25;;
35835;SDS011;21955;50.580;7.228;2022-12-10T09:09:59;27.23;;;13.47;;
35835;SDS011;21955;50.580;7.228;2022-12-10T09:12:26;26.80;;;13.25;;
35835;SDS011;21955;50.580;7.228;2022-12-10T09:14:55;24.05;;;12.48;;
35835;SDS011;21955;50.580;7.228;2022-12-10T09:17:22;26.00;;;13.15;;
35835;SDS011;21955;50.580;7.228;2022-12-10T09:19:50;27.33;;;13.25;;
35835;SDS011;21955;50.580;7.228;2022-12-10T09:22:17;28.00;;;13.83;;
35835;SDS011;21955;50.580;7.228;2022-12-10T09:24:44;29.83;;;14.27;;
35835;SDS011;21955;50.580;7.228;2022-12-10T09:27:11;26.95;;;13.85;;
35835;SDS011;21955;50.580;7.228;2022-12-10T09:29:38;26.70;;;12.90;;
35835;SDS011;21955;50.580;7.228;2022-12-10T09:32:07;26.53;;;13.67;;
35835;SDS011;21955;50.580;7.228;2022-12-10T09:34:34;27.50;;;13.98;;
35835;SDS011;21955;50.580;7.228;2022-12-10T09:37:01;27.15;;;13.43;;
35835;SDS011;21955;50.580;7.228;2022-12-10T09:39:28;28.58;;;14.52;;
35835;SDS011;21955;50.580;7.228;2022-12-10T09:42:02;29.15;;;14.45;;
35835;SDS011;21955;50.580;7.228;2022-12-10T09:44:35;27.20;;;13.60;;
35835;SDS011;21955;50.580;7.228;2022-12-10T09:47:05;29.15;;;14.98;;
35835;SDS011;21955;50.580;7.228;2022-12-10T09:49:38;28.33;;;14.55;;
35835;SDS011;21955;50.580;7.228;2022-12-10T09:52:09;29.42;;;15.57;;
35835;SDS011;21955;50.580;7.228;2022-12-10T09:54:39;29.33;;;15.18;;
35835;SDS011;21955;50.580;7.228;2022-12-10T09:57:10;28.83;;;14.73;;
35835;SDS011;21955;50.580;7.228;2022-12-10T09:59:43;29.80;;;14.87;;
35835;SDS011;21955;50.580;7.228;2022-12-10T10:02:16;30.00;;;15.00;;
35835;SDS011;21955;50.580;7.228;2022-12-10T10:04:47;29.83;;;15.35;;
35835;SDS011;21955;50.580;7.228;2022-12-10T10:07:17;28.90;;;14.27;;
35835;SDS011;21955;50.580;7.228;2022-12-10T10:09:46;29.92;;;14.95;;
35835;SDS011;21955;50.580;7.228;2022-12-10T10:12:13;30.67;;;15.07;;
35835;SDS011;21955;50.580;7.228;2022-12-10T10:14:41;34.70;;;16.65;;
35835;SDS011;21955;50.580;7.228;2022-12-10T10:17:09;44.13;;;21.35;;
35835;SDS011;21955;50.580;7.228;2022-12-10T10:19:37;37.35;;;17.77;;
35835;SDS011;21955;50.580;7.228;2022-12-10T10:22:09;31.60;;;15.13;;
35835;SDS011;21955;50.580;7.228;2022-12-10T10:24:37;32.22;;;15.50;;
35835;SDS011;21955;50.580;7.228;2022-12-10T10:27:10;32.20;;;16.27;;
35835;SDS011;21955;50.580;7.228;2022-12-10T10:29:38;30.70;;;14.98;;
35835;SDS011;21955;50.580;7.228;2022-12-10T10:32:16;32.85;;;16.38;;
35835;SDS011;21955;50.580;7.228;2022-12-10T10:34:43;32.15;;;15.57;;
35835;SDS011;21955;50.580;7.228;2022-12-10T10:37:26;30.63;;;15.90;;
35835;SDS011;21955;50.580;7.228;2022-12-10T10:39:54;30.38;;;15.85;;
35835;SDS011;21955;50.580;7.228;2022-12-10T10:42:26;31.90;;;16.05;;
35835;SDS011;21955;50.580;7.228;2022-12-10T10:44:55;36.13;;;17.10;;
35835;SDS011;21955;50.580;7.228;2022-12-10T10:47:27;33.90;;;16.75;;
35835;SDS011;21955;50.580;7.228;2022-12-10T10:49:54;33.03;;;16.85;;
35835;SDS011;21955;50.580;7.228;2022-12-10T10:52:23;33.97;;;16.40;;
35835;SDS011;21955;50.580;7.228;2022-12-10T10:54:54;30.73;;;15.60;;
35835;SDS011;21955;50.580;7.228;2022-12-10T10:57:22;33.92;;;16.00;;
35835;SDS011;21955;50.580;7.228;2022-12-10T10:59:51;29.35;;;14.88;;
35835;SDS011;21955;50.580;7.228;2022-12-10T11:02:20;32.25;;;15.45;;
35835;SDS011;21955;50.580;7.228;2022-12-10T11:04:50;30.23;;;15.00;;
35835;SDS011;21955;50.580;7.228;2022-12-10T11:07:19;30.08;;;15.05;;
35835;SDS011;21955;50.580;7.228;2022-12-10T11:09:49;31.37;;;15.53;;
35835;SDS011;21955;50.580;7.228;2022-12-10T11:12:30;32.95;;;15.60;;
35835;SDS011;21955;50.580;7.228;2022-12-10T11:14:59;35.73;;;16.87;;
35835;SDS011;21955;50.580;7.228;2022-12-10T11:17:27;34.97;;;16.55;;
35835;SDS011;21955;50.580;7.228;2022-12-10T11:19:55;34.25;;;16.58;;
35835;SDS011;21955;50.580;7.228;2022-12-10T11:22:24;30.40;;;16.48;;
35835;SDS011;21955;50.580;7.228;2022-12-10T11:24:52;31.95;;;16.08;;
35835;SDS011;21955;50.580;7.228;2022-12-10T11:27:30;33.67;;;16.27;;
35835;SDS011;21955;50.580;7.228;2022-12-10T11:30:01;33.03;;;16.38;;
35835;SDS011;21955;50.580;7.228;2022-12-10T11:32:43;38.22;;;18.13;;
35835;SDS011;21955;50.580;7.228;2022-12-10T11:35:14;37.03;;;17.88;;
35835;SDS011;21955;50.580;7.228;2022-12-10T11:37:47;33.88;;;17.38;;
35835;SDS011;21955;50.580;7.228;2022-12-10T11:40:30;39.75;;;18.92;;
35835;SDS011;21955;50.580;7.228;2022-12-10T11:43:14;36.13;;;17.73;;
35835;SDS011;21955;50.580;7.228;2022-12-10T11:45:47;37.35;;;17.85;;
35835;SDS011;21955;50.580;7.228;2022-12-10T11:48:21;34.88;;;16.88;;
35835;SDS011;21955;50.580;7.228;2022-12-10T11:50:52;35.45;;;17.70;;
35835;SDS011;21955;50.580;7.228;2022-12-10T11:53:28;36.95;;;17.48;;
35835;SDS011;21955;50.580;7.228;2022-12-10T11:56:03;36.25;;;17.33;;
35835;SDS011;21955;50.580;7.228;2022-12-10T11:58:45;35.43;;;16.53;;
35835;SDS011;21955;50.580;7.228;2022-12-10T12:01:18;34.90;;;16.40;;
35835;SDS011;21955;50.580;7.228;2022-12-10T12:03:55;37.33;;;17.80;;
35835;SDS011;21955;50.580;7.228;2022-12-10T12:06:40;35.65;;;17.95;;
35835;SDS011;21955;50.580;7.228;2022-12-10T12:09:15;34.43;;;17.20;;
35835;SDS011;21955;50.580;7.228;2022-12-10T12:11:51;35.85;;;17.65;;
35835;SDS011;21955;50.580;7.228;2022-12-10T12:14:22;37.20;;;17.38;;
35835;SDS011;21955;50.580;7.228;2022-12-10T12:16:52;33.65;;;17.13;;
35835;SDS011;21955;50.580;7.228;2022-12-10T12:19:23;35.05;;;17.05;;
35835;SDS011;21955;50.580;7.228;2022-12-10T12:21:52;37.05;;;17.48;;
35835;SDS011;21955;50.580;7.228;2022-12-10T12:24:20;39.22;;;18.30;;
35835;SDS011;21955;50.580;7.228;2022-12-10T12:26:48;37.30;;;18.15;;
35835;SDS011;21955;50.580;7.228;2022-12-10T12:29:20;35.80;;;17.47;;
35835;SDS011;21955;50.580;7.228;2022-12-10T12:31:53;35.90;;;17.10;;
35835;SDS011;21955;50.580;7.228;2022-12-10T12:34:23;34.28;;;16.58;;
35835;SDS011;21955;50.580;7.228;2022-12-10T12:36:51;34.42;;;16.63;;
35835;SDS011;21955;50.580;7.228;2022-12-10T12:39:20;32.92;;;16.40;;
35835;SDS011;21955;50.580;7.228;2022-12-10T12:41:53;35.90;;;16.70;;
35835;SDS011;21955;50.580;7.228;2022-12-10T12:44:24;33.58;;;15.85;;
35835;SDS011;21955;50.580;7.228;2022-12-10T12:46:55;36.03;;;17.02;;
35835;SDS011;21955;50.580;7.228;2022-12-10T12:49:24;33.35;;;16.10;;
35835;SDS011;21955;50.580;7.228;2022-12-10T12:51:54;35.47;;;16.40;;
35835;SDS011;21955;50.580;7.228;2022-12-10T12:54:23;34.22;;;16.00;;
35835;SDS011;21955;50.580;7.228;2022-12-10T12:56:54;38.90;;;17.63;;
35835;SDS011;21955;50.580;7.228;2022-12-10T12:59:26;36.40;;;17.48;;
35835;SDS011;21955;50.580;7.228;2022-12-10T13:01:59;31.50;;;15.90;;
35835;SDS011;21955;50.580;7.228;2022-12-10T13:04:29;32.65;;;16.05;;
35835;SDS011;21955;50.580;7.228;2022-12-10T13:07:11;34.25;;;15.95;;
35835;SDS011;21955;50.580;7.228;2022-12-10T13:10:07;30.67;;;14.98;;
35835;SDS011;21955;50.580;7.228;2022-12-10T13:12:44;31.88;;;16.15;;
35835;SDS011;21955;50.580;7.228;2022-12-10T13:15:18;29.73;;;14.73;;
35835;SDS011;21955;50.580;7.228;2022-12-10T13:20:33;30.10;;;14.93;;
35835;SDS011;21955;50.580;7.228;2022-12-10T13:23:01;28.42;;;14.43;;
35835;SDS011;21955;50.580;7.228;2022-12-10T13:25:39;29.42;;;14.52;;
35835;SDS011;21955;50.580;7.228;2022-12-10T13:28:16;28.53;;;14.33;;
35835;SDS011;21955;50.580;7.228;2022-12-10T13:33:34;28.17;;;13.85;;
35835;SDS011;21955;50.580;7.228;2022-12-10T13:36:12;27.15;;;14.10;;
35835;SDS011;21955;50.580;7.228;2022-12-10T13:38:40;26.95;;;14.10;;
35835;SDS011;21955;50.580;7.228;2022-12-10T13:41:08;28.70;;;14.20;;
35835;SDS011;21955;50.580;7.228;2022-12-10T13:43:53;27.20;;;14.27;;
35835;SDS011;21955;50.580;7.228;2022-12-10T13:49:23;30.52;;;15.13;;
35835;SDS011;21955;50.580;7.228;2022-12-10T13:51:52;28.33;;;14.65;;
35835;SDS011;21955;50.580;7.228;2022-12-10T13:57:30;25.73;;;13.43;;
35835;SDS011;21955;50.580;7.228;2022-12-10T14:00:01;27.15;;;13.65;;
35835;SDS011;21955;50.580;7.228;2022-12-10T14:02:50;26.98;;;13.98;;
35835;SDS011;21955;50.580;7.228;2022-12-10T14:05:35;33.05;;;15.68;;
35835;SDS011;21955;50.580;7.228;2022-12-10T14:08:06;43.78;;;20.95;;
35835;SDS011;21955;50.580;7.228;2022-12-10T14:10:37;33.23;;;16.17;;
35835;SDS011;21955;50.580;7.228;2022-12-10T14:13:04;27.90;;;14.23;;
35835;SDS011;21955;50.580;7.228;2022-12-10T14:15:33;29.75;;;14.82;;
35835;SDS011;21955;50.580;7.228;2022-12-10T14:18:02;31.33;;;15.40;;
35835;SDS011;21955;50.580;7.228;2022-12-10T14:20:32;27.20;;;14.20;;
35835;SDS011;21955;50.580;7.228;2022-12-10T14:23:02;28.77;;;14.30;;
35835;SDS011;21955;50.580;7.228;2022-12-10T14:25:44;31.00;;;14.70;;
35835;SDS011;21955;50.580;7.228;2022-12-10T14:28:11;30.05;;;14.73;;
35835;SDS011;21955;50.580;7.228;2022-12-10T14:30:41;31.47;;;15.97;;
35835;SDS011;21955;50.580;7.228;2022-12-10T14:33:09;33.67;;;16.83;;
35835;SDS011;21955;50.580;7.228;2022-12-10T14:35:40;32.47;;;16.05;;
35835;SDS011;21955;50.580;7.228;2022-12-10T14:38:12;31.83;;;15.98;;
35835;SDS011;21955;50.580;7.228;2022-12-10T14:40:43;51.67;;;22.95;;
35835;SDS011;21955;50.580;7.228;2022-12-10T14:43:11;40.75;;;20.02;;
35835;SDS011;21955;50.580;7.228;2022-12-10T14:45:41;28.92;;;14.50;;
35835;SDS011;21955;50.580;7.228;2022-12-10T14:48:12;30.45;;;15.20;;
35835;SDS011;21955;50.580;7.228;2022-12-10T14:50:42;34.75;;;17.00;;